Terminal Aerodrome Forecast
Issued by NWS Kansas City/Pleasant Hill, MO

Home | Current Version | Previous Version | Text Only | Print | Product List | Glossary On
Versions: 1 2 3 4 5 6 7 8 9 10 11 12
936
FTUS43 KEAX 301720
TAFMCI
TAF
KMCI 301720Z 3018/0118 28013KT P6SM BKN035
     FM010000 28009KT P6SM OVC050
     FM010500 27007KT P6SM SCT250=

USA.gov is the U.S. government's official web portal to all federal, state and local government web resources and services.